DJ2 OPSD-OPIS
Flight info
| Callsign | DJ2 |
|---|---|
| Flight time | 0h 44m |
| Altitude | 38000 |
| Route | BIREB DCT DELDA DCT KAPMI DCT BOBAM |
| Aircraft | C700/M-SBDGHM1RWXY/LB2 |
Departure
| Time | 2026-04-26 03:22 |
|---|---|
| Airport | Skardu International Airport (OPSD) |
Arrival
| Time | 2026-04-26 04:06 |
|---|---|
| Airport | Islamabad International Airport (OPIS) |
| Time | Latitude | Longitude | Altitude | Speed | Heading |
|---|---|---|---|---|---|
| 2026-04-26 03:10 | 35.33178 | 75.54271 | 7368 ft | 0 kts | 246° |
| 2026-04-26 03:14 | 35.33183 | 75.54284 | 7380 ft | 3 kts | 246° |
| 2026-04-26 03:14 | 35.33191 | 75.54305 | 7384 ft | 3 kts | 246° |
| 2026-04-26 03:14 | 35.33198 | 75.54325 | 7386 ft | 3 kts | 246° |
| 2026-04-26 03:14 | 35.33206 | 75.54345 | 7381 ft | 3 kts | 246° |
| 2026-04-26 03:15 | 35.33208 | 75.54351 | 7379 ft | 0 kts | 246° |
| 2026-04-26 03:17 | 35.33207 | 75.54346 | 7379 ft | 1 kts | 263° |
| 2026-04-26 03:18 | 35.33212 | 75.54328 | 7382 ft | 1 kts | 348° |
| 2026-04-26 03:18 | 35.33215 | 75.54340 | 7384 ft | 2 kts | 91° |
| 2026-04-26 03:18 | 35.33197 | 75.54413 | 7379 ft | 16 kts | 106° |
| 2026-04-26 03:18 | 35.33263 | 75.54561 | 7385 ft | 18 kts | 58° |
| 2026-04-26 03:19 | 35.33294 | 75.54656 | 7380 ft | 15 kts | 113° |
| 2026-04-26 03:19 | 35.33180 | 75.54748 | 7387 ft | 25 kts | 148° |
| 2026-04-26 03:19 | 35.33009 | 75.54883 | 7384 ft | 33 kts | 147° |
| 2026-04-26 03:19 | 35.32799 | 75.55048 | 7390 ft | 39 kts | 147° |
| 2026-04-26 03:20 | 35.32663 | 75.55189 | 7393 ft | 22 kts | 121° |
| 2026-04-26 03:20 | 35.32623 | 75.55181 | 7390 ft | 11 kts | 346° |
| 2026-04-26 03:20 | 35.32659 | 75.55159 | 7395 ft | 2 kts | 325° |
| 2026-04-26 03:20 | 35.32660 | 75.55157 | 7391 ft | 0 kts | 325° |
| 2026-04-26 03:21 | 35.32667 | 75.55152 | 7392 ft | 9 kts | 325° |
| 2026-04-26 03:21 | 35.32939 | 75.54935 | 7387 ft | 91 kts | 328° |
| 2026-04-26 03:21 | 35.33711 | 75.54332 | 7381 ft | 169 kts | 327° |
| 2026-04-26 03:21 | 35.34829 | 75.53434 | 7747 ft | 207 kts | 326° |
| 2026-04-26 03:22 | 35.36077 | 75.52352 | 8538 ft | 224 kts | 324° |
| 2026-04-26 03:22 | 35.37361 | 75.51223 | 9345 ft | 233 kts | 324° |
| 2026-04-26 03:22 | 35.38702 | 75.50074 | 10047 ft | 237 kts | 325° |
| 2026-04-26 03:22 | 35.40141 | 75.48849 | 10802 ft | 266 kts | 325° |
| 2026-04-26 03:23 | 35.41728 | 75.47491 | 11782 ft | 289 kts | 325° |
| 2026-04-26 03:23 | 35.43405 | 75.46053 | 12917 ft | 307 kts | 325° |
| 2026-04-26 03:23 | 35.45198 | 75.44514 | 14189 ft | 321 kts | 325° |
| 2026-04-26 03:23 | 35.46659 | 75.43262 | 15140 ft | 330 kts | 325° |
| 2026-04-26 03:28 | 35.48071 | 75.42052 | 16083 ft | 336 kts | 325° |
| 2026-04-26 03:28 | 35.50006 | 75.40392 | 17442 ft | 342 kts | 325° |
| 2026-04-26 03:29 | 35.51960 | 75.38709 | 18876 ft | 344 kts | 325° |
| 2026-04-26 03:29 | 35.53925 | 75.37020 | 20163 ft | 345 kts | 325° |
| 2026-04-26 03:29 | 35.55847 | 75.35281 | 21524 ft | 342 kts | 319° |
| 2026-04-26 03:29 | 35.57328 | 75.33030 | 22903 ft | 340 kts | 296° |
| 2026-04-26 03:30 | 35.58079 | 75.30339 | 24283 ft | 335 kts | 288° |
| 2026-04-26 03:30 | 35.58121 | 75.30165 | 24360 ft | 334 kts | 288° |
| 2026-04-26 03:30 | 35.58621 | 75.28084 | 25294 ft | 330 kts | 289° |
| 2026-04-26 03:30 | 35.59305 | 75.25424 | 26483 ft | 323 kts | 291° |
| 2026-04-26 03:31 | 35.60009 | 75.22835 | 27706 ft | 315 kts | 291° |
| 2026-04-26 03:31 | 35.60681 | 75.20305 | 28918 ft | 307 kts | 291° |
| 2026-04-26 03:31 | 35.61322 | 75.17834 | 30141 ft | 300 kts | 291° |
| 2026-04-26 03:31 | 35.61952 | 75.15423 | 31219 ft | 292 kts | 291° |
| 2026-04-26 03:32 | 35.62561 | 75.13109 | 32161 ft | 285 kts | 292° |
| 2026-04-26 03:32 | 35.63162 | 75.10818 | 33063 ft | 278 kts | 292° |
| 2026-04-26 03:32 | 35.63748 | 75.08579 | 34014 ft | 272 kts | 292° |
| 2026-04-26 03:32 | 35.64320 | 75.06393 | 34869 ft | 266 kts | 291° |
| 2026-04-26 03:33 | 35.64881 | 75.04252 | 35602 ft | 261 kts | 292° |
| 2026-04-26 03:33 | 35.65429 | 75.02145 | 36274 ft | 257 kts | 292° |
| 2026-04-26 03:33 | 35.65970 | 75.00072 | 36878 ft | 253 kts | 292° |
| 2026-04-26 03:33 | 35.66505 | 74.98026 | 37409 ft | 249 kts | 292° |
| 2026-04-26 03:34 | 35.67030 | 74.96009 | 37899 ft | 246 kts | 292° |
| 2026-04-26 03:34 | 35.67542 | 74.94038 | 38337 ft | 245 kts | 292° |
| 2026-04-26 03:34 | 35.68080 | 74.91987 | 38377 ft | 259 kts | 292° |
| 2026-04-26 03:34 | 35.68643 | 74.89829 | 38383 ft | 271 kts | 291° |
| 2026-04-26 03:35 | 35.69229 | 74.87565 | 38384 ft | 284 kts | 291° |
| 2026-04-26 03:35 | 35.69845 | 74.85188 | 38350 ft | 298 kts | 290° |
| 2026-04-26 03:35 | 35.70302 | 74.82650 | 38378 ft | 312 kts | 282° |
| 2026-04-26 03:35 | 35.70459 | 74.79920 | 38377 ft | 330 kts | 275° |
| 2026-04-26 03:36 | 35.70270 | 74.77038 | 38369 ft | 348 kts | 267° |
| 2026-04-26 03:36 | 35.69673 | 74.74068 | 38362 ft | 368 kts | 258° |
| 2026-04-26 03:36 | 35.68626 | 74.71132 | 38394 ft | 381 kts | 249° |
| 2026-04-26 03:36 | 35.67379 | 74.68245 | 38347 ft | 394 kts | 250° |
| 2026-04-26 03:37 | 35.66102 | 74.65211 | 38343 ft | 405 kts | 250° |
| 2026-04-26 03:37 | 35.64787 | 74.62092 | 38339 ft | 417 kts | 249° |
| 2026-04-26 03:37 | 35.62016 | 74.55638 | 38336 ft | 437 kts | 249° |
| 2026-04-26 03:38 | 35.59146 | 74.48910 | 38348 ft | 449 kts | 249° |
| 2026-04-26 03:38 | 35.56229 | 74.42112 | 38331 ft | 453 kts | 249° |
| 2026-04-26 03:39 | 35.53303 | 74.35292 | 38334 ft | 451 kts | 249° |
| 2026-04-26 03:39 | 35.50368 | 74.28469 | 38313 ft | 449 kts | 249° |
| 2026-04-26 03:40 | 35.47456 | 74.21705 | 38304 ft | 448 kts | 249° |
| 2026-04-26 03:40 | 35.44532 | 74.14933 | 38312 ft | 452 kts | 249° |
| 2026-04-26 03:41 | 35.41322 | 74.08340 | 38308 ft | 459 kts | 240° |
| 2026-04-26 03:41 | 35.36929 | 74.02531 | 38318 ft | 467 kts | 232° |
| 2026-04-26 03:42 | 35.32321 | 73.96914 | 38310 ft | 466 kts | 232° |
| 2026-04-26 03:42 | 35.27715 | 73.91336 | 38313 ft | 465 kts | 231° |
| 2026-04-26 03:43 | 35.23147 | 73.85804 | 38314 ft | 467 kts | 232° |
| 2026-04-26 03:43 | 35.18537 | 73.80232 | 38313 ft | 464 kts | 232° |
| 2026-04-26 03:44 | 35.13940 | 73.74684 | 38325 ft | 464 kts | 232° |
| 2026-04-26 03:44 | 35.09344 | 73.69149 | 38315 ft | 462 kts | 231° |
| 2026-04-26 03:45 | 35.04805 | 73.63688 | 38294 ft | 462 kts | 231° |
| 2026-04-26 03:45 | 35.00233 | 73.58202 | 38280 ft | 459 kts | 231° |
| 2026-04-26 03:46 | 34.95682 | 73.52744 | 38245 ft | 460 kts | 231° |
| 2026-04-26 03:47 | 34.88848 | 73.44573 | 38169 ft | 458 kts | 231° |
| 2026-04-26 03:47 | 34.84307 | 73.39151 | 38160 ft | 454 kts | 231° |
| 2026-04-26 03:48 | 34.79846 | 73.33828 | 38131 ft | 456 kts | 231° |
| 2026-04-26 03:48 | 34.77580 | 73.31130 | 37575 ft | 455 kts | 231° |
| 2026-04-26 03:48 | 34.75333 | 73.28470 | 36884 ft | 447 kts | 231° |
| 2026-04-26 03:48 | 34.73865 | 73.26728 | 36395 ft | 442 kts | 231° |
| 2026-04-26 03:49 | 34.71691 | 73.24144 | 35716 ft | 433 kts | 231° |
| 2026-04-26 03:49 | 34.69553 | 73.21598 | 35039 ft | 429 kts | 231° |
| 2026-04-26 03:49 | 34.67413 | 73.19054 | 34340 ft | 431 kts | 231° |
| 2026-04-26 03:49 | 34.65257 | 73.16503 | 33629 ft | 435 kts | 230° |
| 2026-04-26 03:50 | 34.62069 | 73.13429 | 32703 ft | 452 kts | 220° |
| 2026-04-26 03:50 | 34.59302 | 73.11524 | 31976 ft | 463 kts | 212° |
| 2026-04-26 03:50 | 34.57284 | 73.10484 | 31480 ft | 470 kts | 206° |
| 2026-04-26 03:50 | 34.54116 | 73.09357 | 30728 ft | 480 kts | 198° |
| 2026-04-26 03:51 | 34.50819 | 73.08773 | 29964 ft | 491 kts | 189° |
| 2026-04-26 03:51 | 34.47383 | 73.08754 | 29151 ft | 494 kts | 182° |
| 2026-04-26 03:51 | 34.43968 | 73.08924 | 28382 ft | 489 kts | 182° |
| 2026-04-26 03:51 | 34.40595 | 73.09077 | 27613 ft | 482 kts | 182° |
| 2026-04-26 03:52 | 34.37264 | 73.09214 | 26860 ft | 475 kts | 182° |
| 2026-04-26 03:52 | 34.33983 | 73.09358 | 26115 ft | 468 kts | 182° |
| 2026-04-26 03:52 | 34.30760 | 73.09507 | 25387 ft | 461 kts | 181° |
| 2026-04-26 03:52 | 34.27571 | 73.09650 | 24666 ft | 456 kts | 181° |
| 2026-04-26 03:53 | 34.24421 | 73.09787 | 23956 ft | 450 kts | 181° |
| 2026-04-26 03:53 | 34.21350 | 73.09921 | 23217 ft | 445 kts | 181° |
| 2026-04-26 03:53 | 34.18287 | 73.10059 | 22513 ft | 437 kts | 181° |
| 2026-04-26 03:53 | 34.15264 | 73.10194 | 21829 ft | 432 kts | 181° |
| 2026-04-26 03:54 | 34.12274 | 73.10324 | 21158 ft | 428 kts | 181° |
| 2026-04-26 03:54 | 34.09321 | 73.10453 | 20490 ft | 424 kts | 181° |
| 2026-04-26 03:54 | 34.06375 | 73.10585 | 19829 ft | 420 kts | 181° |
| 2026-04-26 03:54 | 34.03465 | 73.10715 | 19167 ft | 416 kts | 180° |
| 2026-04-26 03:55 | 34.00582 | 73.10840 | 18514 ft | 412 kts | 180° |
| 2026-04-26 03:55 | 33.97735 | 73.10964 | 17835 ft | 407 kts | 180° |
| 2026-04-26 03:55 | 33.94959 | 73.11058 | 17213 ft | 402 kts | 181° |
| 2026-04-26 03:55 | 33.92177 | 73.11087 | 16616 ft | 399 kts | 180° |
| 2026-04-26 03:56 | 33.89409 | 73.11205 | 16032 ft | 397 kts | 179° |
| 2026-04-26 03:56 | 33.86664 | 73.11387 | 15449 ft | 393 kts | 178° |
| 2026-04-26 03:56 | 33.83941 | 73.11530 | 14884 ft | 390 kts | 179° |
| 2026-04-26 03:56 | 33.81239 | 73.11629 | 14332 ft | 388 kts | 179° |
| 2026-04-26 03:57 | 33.78566 | 73.11742 | 13784 ft | 378 kts | 178° |
| 2026-04-26 03:57 | 33.75985 | 73.11876 | 13187 ft | 365 kts | 178° |
| 2026-04-26 03:57 | 33.73506 | 73.11999 | 12588 ft | 354 kts | 178° |
| 2026-04-26 03:57 | 33.71099 | 73.12105 | 12007 ft | 344 kts | 178° |
| 2026-04-26 03:58 | 33.68731 | 73.12212 | 11436 ft | 337 kts | 178° |
| 2026-04-26 03:58 | 33.66417 | 73.12322 | 10883 ft | 330 kts | 178° |
| 2026-04-26 03:58 | 33.64880 | 73.12396 | 10505 ft | 326 kts | 178° |
| 2026-04-26 03:58 | 33.62554 | 73.12502 | 10014 ft | 321 kts | 178° |
| 2026-04-26 03:59 | 33.60367 | 73.12606 | 9529 ft | 298 kts | 178° |
| 2026-04-26 03:59 | 33.58373 | 73.12697 | 9493 ft | 278 kts | 178° |
| 2026-04-26 03:59 | 33.56478 | 73.12784 | 9483 ft | 268 kts | 178° |
| 2026-04-26 03:59 | 33.54641 | 73.12907 | 9486 ft | 262 kts | 173° |
| 2026-04-26 04:00 | 33.52869 | 73.13194 | 9487 ft | 268 kts | 182° |
| 2026-04-26 04:00 | 33.51136 | 73.12578 | 9506 ft | 252 kts | 212° |
| 2026-04-26 04:00 | 33.49913 | 73.11197 | 9507 ft | 238 kts | 238° |
| 2026-04-26 04:00 | 33.49307 | 73.09393 | 9510 ft | 226 kts | 263° |
| 2026-04-26 04:01 | 33.49337 | 73.07638 | 9375 ft | 202 kts | 282° |
| 2026-04-26 04:01 | 33.49864 | 73.06076 | 8138 ft | 207 kts | 305° |
| 2026-04-26 04:01 | 33.50811 | 73.04753 | 6924 ft | 210 kts | 313° |
| 2026-04-26 04:01 | 33.51540 | 73.03338 | 5740 ft | 185 kts | 296° |
| 2026-04-26 04:02 | 33.51925 | 73.01960 | 4555 ft | 167 kts | 287° |
| 2026-04-26 04:02 | 33.52157 | 73.00694 | 4086 ft | 143 kts | 285° |
| 2026-04-26 04:02 | 33.52359 | 72.99516 | 4060 ft | 149 kts | 285° |
| 2026-04-26 04:02 | 33.52551 | 72.98304 | 3943 ft | 147 kts | 282° |
| 2026-04-26 04:03 | 33.52735 | 72.97097 | 3750 ft | 146 kts | 284° |
| 2026-04-26 04:03 | 33.52929 | 72.95889 | 3575 ft | 150 kts | 283° |
| 2026-04-26 04:03 | 33.53115 | 72.94654 | 3386 ft | 149 kts | 284° |
| 2026-04-26 04:03 | 33.53308 | 72.93430 | 3196 ft | 151 kts | 284° |
| 2026-04-26 04:04 | 33.53496 | 72.92222 | 2999 ft | 145 kts | 284° |
| 2026-04-26 04:04 | 33.53680 | 72.91065 | 2812 ft | 136 kts | 283° |
| 2026-04-26 04:04 | 33.53850 | 72.89952 | 2644 ft | 135 kts | 284° |
| 2026-04-26 04:04 | 33.54014 | 72.88895 | 2484 ft | 125 kts | 284° |
| 2026-04-26 04:05 | 33.54161 | 72.87929 | 2339 ft | 122 kts | 286° |
| 2026-04-26 04:05 | 33.54334 | 72.86930 | 2204 ft | 123 kts | 285° |
| 2026-04-26 04:05 | 33.54440 | 72.85943 | 2031 ft | 117 kts | 284° |
| 2026-04-26 04:05 | 33.54598 | 72.84950 | 1829 ft | 120 kts | 288° |
| 2026-04-26 04:06 | 33.54780 | 72.84002 | 1755 ft | 105 kts | 282° |
| 2026-04-26 04:06 | 33.54870 | 72.83430 | 1758 ft | 40 kts | 280° |
| 2026-04-26 04:06 | 33.54898 | 72.83254 | 1756 ft | 12 kts | 278° |
| 2026-04-26 04:06 | 33.54912 | 72.83136 | 1757 ft | 16 kts | 276° |
| 2026-04-26 04:07 | 33.54938 | 72.82977 | 1753 ft | 24 kts | 279° |
| 2026-04-26 04:07 | 33.54978 | 72.82746 | 1754 ft | 32 kts | 277° |
| 2026-04-26 04:07 | 33.55013 | 72.82501 | 1753 ft | 18 kts | 282° |
| 2026-04-26 04:07 | 33.55118 | 72.82461 | 1761 ft | 18 kts | 10° |
| 2026-04-26 04:08 | 33.55200 | 72.82557 | 1762 ft | 22 kts | 95° |
| 2026-04-26 04:08 | 33.55167 | 72.82770 | 1762 ft | 30 kts | 101° |
| 2026-04-26 04:08 | 33.55187 | 72.82994 | 1763 ft | 2 kts | 20° |
| 2026-04-26 04:08 | 33.55202 | 72.82975 | 1764 ft | 4 kts | 295° |
| 2026-04-26 04:09 | 33.55216 | 72.82933 | 1766 ft | 7 kts | 324° |
| 2026-04-26 04:09 | 33.55263 | 72.82896 | 1764 ft | 7 kts | 324° |
| 2026-04-26 04:09 | 33.55269 | 72.82891 | 1764 ft | 1 kts | 326° |
| 2026-04-26 04:09 | 33.55270 | 72.82891 | 1764 ft | 0 kts | 326° |